createdAt,value
2019-03-03T00:00:30.940Z,34.50
2019-03-03T00:02:59.376Z,35.47
2019-03-03T00:05:27.800Z,35.20
2019-03-03T00:07:56.469Z,36.93
2019-03-03T00:10:24.904Z,37.67
2019-03-03T00:12:53.318Z,42.23
2019-03-03T00:15:21.754Z,41.37
2019-03-03T00:17:50.156Z,42.60
2019-03-03T00:20:18.589Z,42.97
2019-03-03T00:22:47.006Z,43.53
2019-03-03T00:25:15.880Z,44.13
2019-03-03T00:27:44.284Z,44.43
2019-03-03T00:30:21.601Z,44.27
2019-03-03T00:32:50.086Z,46.43
2019-03-03T00:35:18.744Z,45.07
2019-03-03T00:37:52.033Z,44.67
2019-03-03T00:40:33.676Z,41.47
2019-03-03T00:43:21.679Z,41.93
2019-03-03T00:46:06.604Z,41.10
2019-03-03T00:48:52.471Z,42.53
2019-03-03T00:51:28.072Z,37.63
2019-03-03T00:54:03.953Z,40.15
2019-03-03T00:56:34.010Z,38.83
2019-03-03T00:59:21.980Z,38.80
2019-03-03T01:02:00.977Z,38.57
2019-03-03T01:04:47.112Z,38.13
2019-03-03T01:07:17.157Z,36.47
2019-03-03T01:09:47.248Z,38.13
2019-03-03T01:12:20.217Z,36.40
2019-03-03T01:14:53.012Z,38.13
2019-03-03T01:17:26.023Z,36.17
2019-03-03T01:19:56.099Z,38.17
2019-03-03T01:22:26.140Z,36.23
2019-03-03T01:24:57.528Z,35.40
2019-03-03T01:27:26.089Z,35.03
2019-03-03T01:29:54.507Z,35.07
2019-03-03T01:32:22.937Z,33.87
2019-03-03T01:34:51.435Z,33.77
2019-03-03T01:37:19.864Z,32.53
2019-03-03T01:39:48.276Z,32.47
2019-03-03T01:42:16.704Z,32.40
2019-03-03T01:44:45.124Z,33.60
2019-03-03T01:47:13.568Z,31.73
2019-03-03T01:49:41.981Z,31.67
2019-03-03T01:52:10.384Z,30.27
2019-03-03T01:54:38.802Z,28.80
2019-03-03T01:57:07.229Z,29.70
2019-03-03T01:59:35.640Z,29.93
2019-03-03T02:02:04.217Z,28.70
2019-03-03T02:04:32.854Z,29.40
2019-03-03T02:07:01.336Z,29.23
2019-03-03T02:09:29.838Z,28.07
2019-03-03T02:11:58.324Z,29.07
2019-03-03T02:14:26.908Z,28.33
2019-03-03T02:16:55.385Z,27.37
2019-03-03T02:19:23.792Z,26.33
2019-03-03T02:21:52.228Z,26.03
2019-03-03T02:24:20.735Z,24.17
2019-03-03T02:26:49.205Z,24.67
2019-03-03T02:29:17.645Z,22.77
2019-03-03T02:31:46.056Z,24.43
2019-03-03T02:34:14.497Z,22.00
2019-03-03T02:36:42.929Z,23.12
2019-03-03T02:39:15.982Z,22.30
2019-03-03T02:41:44.426Z,23.40
2019-03-03T02:44:12.920Z,22.10
2019-03-03T02:46:41.653Z,23.20
2019-03-03T02:49:10.088Z,22.83
2019-03-03T02:51:38.573Z,23.93
2019-03-03T02:54:07.118Z,23.07
2019-03-03T02:56:35.539Z,22.75
2019-03-03T02:59:04.099Z,20.87
2019-03-03T03:01:36.742Z,23.13
2019-03-03T03:04:05.153Z,20.97
2019-03-03T03:06:35.266Z,21.67
2019-03-03T03:09:09.812Z,22.00
2019-03-03T03:11:46.184Z,20.40
2019-03-03T03:14:22.331Z,20.30
2019-03-03T03:17:08.426Z,19.20
2019-03-03T03:19:44.376Z,18.93
2019-03-03T03:22:14.698Z,16.63
2019-03-03T03:24:44.735Z,17.07
2019-03-03T03:27:17.512Z,16.62
2019-03-03T03:29:50.341Z,15.63
2019-03-03T03:32:26.438Z,15.00
2019-03-03T03:34:56.505Z,15.10
2019-03-03T03:37:38.662Z,15.67
2019-03-03T03:40:20.166Z,14.93
2019-03-03T03:42:53.406Z,15.40
2019-03-03T03:45:39.634Z,14.63
2019-03-03T03:50:57.532Z,13.27
2019-03-03T03:53:45.723Z,11.87
2019-03-03T03:56:18.373Z,12.67
2019-03-03T03:59:03.265Z,11.87
2019-03-03T04:01:49.129Z,10.90
2019-03-03T04:04:21.849Z,10.73
2019-03-03T04:06:52.075Z,11.20
2019-03-03T04:09:22.121Z,10.83
2019-03-03T04:12:10.406Z,10.87
2019-03-03T04:14:49.602Z,9.57
2019-03-03T04:17:34.633Z,10.60
2019-03-03T04:20:19.756Z,8.70
2019-03-03T04:23:01.476Z,9.30
2019-03-03T04:25:31.553Z,9.70
2019-03-03T04:28:07.763Z,8.87
2019-03-03T04:30:52.937Z,8.63
2019-03-03T04:33:23.001Z,8.90
2019-03-03T04:35:53.136Z,8.77
2019-03-03T04:38:35.256Z,8.13
2019-03-03T04:41:05.312Z,7.67
2019-03-03T04:43:38.363Z,8.17
2019-03-03T04:46:08.421Z,8.50
2019-03-03T04:48:38.481Z,8.00
2019-03-03T04:51:08.554Z,8.23
2019-03-03T04:53:41.543Z,7.50
2019-03-03T04:56:27.907Z,8.57
2019-03-03T04:59:10.093Z,8.10
2019-03-03T05:01:42.893Z,9.37
2019-03-03T05:04:18.840Z,7.73
2019-03-03T05:06:48.896Z,9.40
2019-03-03T05:09:18.940Z,8.93
2019-03-03T05:12:22.874Z,8.53
2019-03-03T05:14:56.011Z,8.50
2019-03-03T05:17:37.973Z,8.27
2019-03-03T05:20:08.744Z,8.73
2019-03-03T05:22:37.174Z,9.63
2019-03-03T05:25:06.750Z,8.63
2019-03-03T05:27:35.179Z,8.37
2019-03-03T05:30:04.671Z,8.30
2019-03-03T05:32:33.081Z,9.43
2019-03-03T05:35:01.516Z,9.67
2019-03-03T05:37:29.941Z,9.93
2019-03-03T05:39:58.344Z,9.40
2019-03-03T05:42:26.757Z,9.87
2019-03-03T05:44:55.203Z,9.50
2019-03-03T05:47:23.605Z,10.47
2019-03-03T05:49:52.041Z,9.83
2019-03-03T05:52:20.458Z,9.90
2019-03-03T05:54:48.902Z,10.43
2019-03-03T05:57:17.320Z,10.40
2019-03-03T05:59:45.764Z,10.67
2019-03-03T06:02:14.197Z,11.00
2019-03-03T06:04:42.868Z,10.50
2019-03-03T06:07:14.025Z,11.67
2019-03-03T06:09:42.427Z,12.17
2019-03-03T06:12:10.869Z,12.63
2019-03-03T06:14:39.306Z,14.37
2019-03-03T06:17:07.708Z,12.90
2019-03-03T06:19:36.145Z,13.47
2019-03-03T06:22:04.635Z,13.97
2019-03-03T06:24:33.049Z,13.83
2019-03-03T06:27:01.465Z,13.30
2019-03-03T06:29:30.016Z,14.60
2019-03-03T06:31:58.428Z,14.37
2019-03-03T06:34:26.842Z,13.07
2019-03-03T06:36:55.292Z,15.57
2019-03-03T06:39:23.700Z,15.53
2019-03-03T06:41:52.112Z,15.93
2019-03-03T06:44:20.571Z,18.07
2019-03-03T06:46:49.147Z,17.60
2019-03-03T06:49:17.648Z,17.17
2019-03-03T06:51:46.087Z,16.53
2019-03-03T06:54:14.504Z,14.57
2019-03-03T06:56:42.993Z,17.30
2019-03-03T06:59:11.427Z,17.40
2019-03-03T07:01:39.897Z,17.07
2019-03-03T07:04:08.349Z,17.03
2019-03-03T07:06:37.022Z,18.20
2019-03-03T07:09:06.598Z,16.50
2019-03-03T07:11:35.032Z,15.93
2019-03-03T07:14:03.536Z,17.07
2019-03-03T07:16:31.969Z,16.70
2019-03-03T07:19:00.386Z,14.83
2019-03-03T07:21:28.772Z,17.23
2019-03-03T07:23:57.202Z,15.03
2019-03-03T07:26:25.621Z,14.70
2019-03-03T07:28:54.144Z,16.10
2019-03-03T07:31:22.560Z,16.67
2019-03-03T07:33:52.073Z,16.67
2019-03-03T07:36:20.477Z,16.30
2019-03-03T07:38:48.912Z,15.60
2019-03-03T07:41:17.315Z,16.23
2019-03-03T07:43:45.737Z,16.17
2019-03-03T07:46:14.220Z,16.97
2019-03-03T07:48:42.636Z,16.03
2019-03-03T07:51:11.069Z,14.80
2019-03-03T07:53:39.514Z,15.30
2019-03-03T07:56:07.922Z,15.23
2019-03-03T07:58:36.356Z,17.67
2019-03-03T08:01:04.787Z,16.17
2019-03-03T08:03:33.209Z,17.57
2019-03-03T08:06:01.689Z,16.67
2019-03-03T08:08:30.106Z,17.73
2019-03-03T08:10:58.621Z,18.60
2019-03-03T08:13:27.088Z,18.00
2019-03-03T08:15:55.561Z,16.80
2019-03-03T08:18:23.968Z,18.57
2019-03-03T08:20:52.392Z,17.30
2019-03-03T08:23:20.800Z,17.70
2019-03-03T08:25:49.317Z,17.43
2019-03-03T08:28:17.734Z,18.30
2019-03-03T08:30:46.137Z,18.35
2019-03-03T08:33:14.590Z,16.03
2019-03-03T08:35:43.023Z,15.73
2019-03-03T08:38:11.492Z,16.20
2019-03-03T08:40:39.900Z,16.55
2019-03-03T08:43:18.777Z,16.97
2019-03-03T08:45:48.820Z,17.13
2019-03-03T08:48:35.161Z,16.50
2019-03-03T08:51:05.200Z,17.80
2019-03-03T08:53:38.412Z,16.80
2019-03-03T08:56:08.515Z,17.73
2019-03-03T08:58:38.580Z,16.17
2019-03-03T09:01:08.637Z,15.63
2019-03-03T09:03:50.748Z,14.87
2019-03-03T09:06:23.485Z,16.73
2019-03-03T09:09:11.596Z,16.57
2019-03-03T09:11:59.620Z,15.37
2019-03-03T09:14:44.359Z,15.40
2019-03-03T09:17:14.430Z,16.30
2019-03-03T09:19:44.481Z,16.47
2019-03-03T09:22:20.597Z,16.90
2019-03-03T09:24:50.680Z,15.80
2019-03-03T09:27:26.460Z,16.00
2019-03-03T09:29:59.229Z,16.77
2019-03-03T09:32:41.230Z,14.90
2019-03-03T09:35:26.178Z,16.17
2019-03-03T09:37:58.976Z,15.10
2019-03-03T09:40:29.018Z,15.60
2019-03-03T09:43:15.270Z,14.93
2019-03-03T09:46:01.402Z,15.17
2019-03-03T09:48:46.319Z,15.60
2019-03-03T09:51:28.133Z,15.00
2019-03-03T09:54:03.917Z,14.70
2019-03-03T09:56:33.959Z,15.03
2019-03-03T09:59:12.693Z,14.27
2019-03-03T10:01:51.701Z,15.00
2019-03-03T10:04:27.486Z,15.40
2019-03-03T10:06:57.553Z,14.97
2019-03-03T10:09:39.325Z,13.20
2019-03-03T10:12:09.448Z,15.60
2019-03-03T10:14:39.504Z,14.80
2019-03-03T10:17:15.535Z,14.60
2019-03-03T10:19:45.575Z,16.83
2019-03-03T10:22:15.688Z,15.83
2019-03-03T10:24:48.857Z,16.47
2019-03-03T10:27:23.105Z,16.33
2019-03-03T10:30:01.860Z,17.70
2019-03-03T10:32:37.385Z,17.90
2019-03-03T10:35:12.144Z,18.37
2019-03-03T10:37:42.250Z,20.53
2019-03-03T10:40:17.104Z,22.03
2019-03-03T10:42:50.314Z,21.17
2019-03-03T10:45:26.538Z,21.67
2019-03-03T10:48:02.597Z,21.23
2019-03-03T10:50:32.718Z,18.97
2019-03-03T10:53:05.777Z,20.60
2019-03-03T10:55:47.575Z,17.07
2019-03-03T10:58:17.702Z,17.23
2019-03-03T11:00:47.813Z,16.03
2019-03-03T11:03:26.800Z,13.87
2019-03-03T11:06:08.745Z,14.20
2019-03-03T11:08:38.893Z,14.03
2019-03-03T11:11:14.871Z,12.30
2019-03-03T11:13:51.222Z,13.23
2019-03-03T11:16:27.417Z,11.90
2019-03-03T11:19:12.111Z,12.80
2019-03-03T11:21:58.067Z,13.97
2019-03-03T11:24:31.881Z,11.03
2019-03-03T11:27:17.086Z,11.43
2019-03-03T11:29:50.086Z,10.97
2019-03-03T11:32:28.998Z,12.33
2019-03-03T11:35:14.123Z,11.13
2019-03-03T11:37:44.256Z,11.77
2019-03-03T11:40:27.899Z,10.20
2019-03-03T11:42:58.073Z,10.07
2019-03-03T11:45:34.153Z,11.60
2019-03-03T11:48:13.104Z,11.93
2019-03-03T11:50:52.008Z,11.57
2019-03-03T11:53:34.037Z,12.53
2019-03-03T11:56:06.740Z,12.67
2019-03-03T11:58:42.485Z,10.73
2019-03-03T12:01:15.572Z,10.57
2019-03-03T12:03:48.357Z,11.30
2019-03-03T12:06:33.026Z,11.23
2019-03-03T12:09:03.081Z,13.28
2019-03-03T12:11:33.176Z,14.83
2019-03-03T12:14:06.245Z,15.10
2019-03-03T12:16:44.984Z,13.00
2019-03-03T12:19:15.059Z,14.83
2019-03-03T12:21:45.185Z,17.30
2019-03-03T12:24:30.124Z,18.37
2019-03-03T12:27:00.168Z,18.00
2019-03-03T12:29:39.220Z,21.50
2019-03-03T12:32:09.306Z,22.87
2019-03-03T12:34:39.344Z,21.17
2019-03-03T12:37:19.806Z,22.80
2019-03-03T12:40:04.569Z,19.03
2019-03-03T12:42:43.352Z,19.93
2019-03-03T12:45:16.146Z,21.50
2019-03-03T12:47:49.250Z,19.53
2019-03-03T12:50:22.149Z,27.47
2019-03-03T12:52:57.964Z,20.47
2019-03-03T12:55:44.299Z,17.83
2019-03-03T12:58:23.110Z,16.93
2019-03-03T13:00:53.192Z,13.43
2019-03-03T13:03:35.353Z,15.80
2019-03-03T13:06:08.212Z,12.87
2019-03-03T13:08:41.262Z,15.90
2019-03-03T13:11:29.552Z,14.23
2019-03-03T13:13:59.701Z,14.73
2019-03-03T13:16:45.804Z,13.83
2019-03-03T13:19:15.896Z,13.70
2019-03-03T13:21:51.673Z,14.97
2019-03-03T13:24:36.615Z,16.77
2019-03-03T13:27:18.351Z,15.57
2019-03-03T13:29:48.426Z,19.83
2019-03-03T13:32:18.463Z,17.03
2019-03-03T13:34:57.460Z,15.57
2019-03-03T13:37:27.513Z,16.83
2019-03-03T13:40:06.413Z,17.87
2019-03-03T13:42:48.415Z,14.97
2019-03-03T13:45:16.911Z,17.10
2019-03-03T13:47:45.406Z,15.07
2019-03-03T13:50:16.199Z,17.33
2019-03-03T13:52:44.881Z,18.57
2019-03-03T13:55:14.232Z,17.60
2019-03-03T13:57:42.824Z,14.80
2019-03-03T14:00:15.041Z,16.17
2019-03-03T14:02:44.411Z,16.87
2019-03-03T14:05:12.920Z,14.57
2019-03-03T14:07:41.312Z,14.63
2019-03-03T14:10:10.691Z,15.50
2019-03-03T14:12:39.141Z,15.57
2019-03-03T14:15:10.263Z,15.67
2019-03-03T14:17:39.119Z,15.23
2019-03-03T14:20:16.365Z,13.80
2019-03-03T14:22:44.777Z,15.83
2019-03-03T14:25:15.008Z,15.23
2019-03-03T14:27:43.481Z,14.97
2019-03-03T14:30:17.573Z,15.97
2019-03-03T14:32:46.049Z,17.33
2019-03-03T14:35:16.168Z,16.73
2019-03-03T14:37:44.593Z,19.20
2019-03-03T14:40:18.185Z,23.30
2019-03-03T14:42:46.595Z,16.07
2019-03-03T14:45:16.665Z,16.90
2019-03-03T14:47:45.072Z,17.70
2019-03-03T14:50:15.944Z,15.57
2019-03-03T14:52:46.253Z,17.23
2019-03-03T14:55:18.886Z,17.43
2019-03-03T14:57:47.389Z,24.23
2019-03-03T15:00:31.252Z,21.00
2019-03-03T15:03:01.732Z,17.77
2019-03-03T15:05:30.265Z,21.43
2019-03-03T15:07:58.701Z,16.33
2019-03-03T15:10:27.223Z,14.83
2019-03-03T15:12:55.793Z,22.40
2019-03-03T15:15:26.912Z,20.30
2019-03-03T15:17:55.341Z,20.03
2019-03-03T15:20:24.080Z,17.80
2019-03-03T15:22:52.488Z,19.00
2019-03-03T15:25:20.994Z,18.30
2019-03-03T15:27:49.419Z,20.27
2019-03-03T15:30:20.130Z,17.67
2019-03-03T15:32:48.636Z,19.07
2019-03-03T15:35:17.289Z,18.77
2019-03-03T15:37:46.436Z,18.13
2019-03-03T15:40:22.973Z,20.47
2019-03-03T15:42:51.382Z,17.93
2019-03-03T15:45:28.021Z,17.27
2019-03-03T15:47:56.440Z,23.10
2019-03-03T15:50:24.939Z,19.57
2019-03-03T15:52:53.408Z,19.07
2019-03-03T15:55:24.167Z,18.87
2019-03-03T15:57:52.564Z,17.17
2019-03-03T16:00:23.733Z,19.47
2019-03-03T16:02:52.236Z,20.43
2019-03-03T16:05:20.937Z,20.37
2019-03-03T16:07:49.506Z,20.87
2019-03-03T16:10:19.957Z,17.97
2019-03-03T16:12:48.392Z,26.80
2019-03-03T16:15:17.834Z,27.57
2019-03-03T16:17:46.240Z,18.47
2019-03-03T16:20:23.733Z,15.67
2019-03-03T16:22:52.301Z,22.70
2019-03-03T16:25:22.924Z,26.00
2019-03-03T16:27:51.888Z,24.87
2019-03-03T16:33:20.269Z,31.70
2019-03-03T16:35:41.322Z,24.67
2019-03-03T16:38:09.853Z,29.83
2019-03-03T16:40:39.866Z,25.40
2019-03-03T16:43:08.556Z,27.70
2019-03-03T16:45:36.974Z,28.60
2019-03-03T16:48:05.470Z,28.77
2019-03-03T16:50:33.883Z,26.83
2019-03-03T16:53:02.309Z,23.67
2019-03-03T16:55:30.717Z,30.60
2019-03-03T16:57:59.128Z,29.23
2019-03-03T17:00:29.087Z,23.53
2019-03-03T17:02:58.516Z,23.77
2019-03-03T17:05:28.542Z,25.37
2019-03-03T17:07:57.032Z,23.73
2019-03-03T17:10:26.086Z,28.33
2019-03-03T17:12:54.512Z,27.13
2019-03-03T17:15:25.145Z,22.20
2019-03-03T17:17:53.596Z,24.40
2019-03-03T17:20:22.163Z,26.00
2019-03-03T17:22:50.564Z,25.73
2019-03-03T17:25:24.857Z,24.73
2019-03-03T17:27:53.342Z,25.97
2019-03-03T17:30:26.442Z,24.83
2019-03-03T17:32:54.858Z,27.00
2019-03-03T17:35:23.269Z,24.03
2019-03-03T17:37:51.970Z,27.47
2019-03-03T17:40:25.183Z,24.20
2019-03-03T17:42:53.652Z,25.03
2019-03-03T17:45:23.201Z,29.30
2019-03-03T17:47:51.963Z,28.67
2019-03-03T17:50:23.225Z,25.12
2019-03-03T17:52:51.639Z,24.83
2019-03-03T17:55:20.145Z,26.70
2019-03-03T17:57:48.626Z,30.47
2019-03-03T18:00:20.256Z,31.53
2019-03-03T18:02:48.784Z,25.03
2019-03-03T18:05:18.474Z,26.00
2019-03-03T18:07:46.927Z,26.17
2019-03-03T18:10:15.600Z,26.33
2019-03-03T18:12:44.095Z,32.77
2019-03-03T18:15:14.376Z,33.87
2019-03-03T18:17:42.785Z,29.10
2019-03-03T18:20:16.032Z,24.83
2019-03-03T18:22:44.478Z,28.63
2019-03-03T18:25:15.717Z,34.77
2019-03-03T18:27:44.312Z,28.47
2019-03-03T18:30:15.757Z,26.70
2019-03-03T18:32:44.197Z,31.77
2019-03-03T18:35:13.164Z,26.90
2019-03-03T18:37:41.656Z,26.17
2019-03-03T18:40:12.942Z,29.13
2019-03-03T18:42:41.472Z,30.17
2019-03-03T18:45:12.141Z,30.33
2019-03-03T18:47:40.724Z,30.33
2019-03-03T18:50:11.958Z,31.07
2019-03-03T18:52:40.540Z,29.13
2019-03-03T18:55:10.910Z,35.20
2019-03-03T18:57:39.893Z,29.50
2019-03-03T19:00:23.125Z,28.77
2019-03-03T19:02:51.801Z,28.23
2019-03-03T19:05:20.454Z,28.70
2019-03-03T19:07:49.125Z,32.57
2019-03-03T19:10:19.920Z,33.53
2019-03-03T19:12:48.360Z,32.43
2019-03-03T19:15:18.714Z,31.20
2019-03-03T19:17:47.225Z,34.70
2019-03-03T19:20:17.914Z,41.80
2019-03-03T19:22:46.362Z,35.33
2019-03-03T19:25:15.917Z,33.73
2019-03-03T19:27:44.601Z,34.97
2019-03-03T19:30:21.926Z,33.43
2019-03-03T19:33:02.304Z,31.87
2019-03-03T19:35:30.788Z,32.57
2019-03-03T19:37:59.305Z,30.10
2019-03-03T19:40:27.910Z,33.97
2019-03-03T19:42:56.376Z,33.97
2019-03-03T19:45:36.320Z,35.80
2019-03-03T19:48:06.006Z,31.37
2019-03-03T19:50:34.513Z,33.07
2019-03-03T19:53:03.004Z,33.27
2019-03-03T19:55:31.454Z,31.87
2019-03-03T19:57:59.926Z,30.60
2019-03-03T20:00:35.599Z,33.27
2019-03-03T20:03:01.216Z,32.27
2019-03-03T20:05:29.629Z,33.67
2019-03-03T20:07:58.138Z,32.13
2019-03-03T20:10:27.374Z,31.23
2019-03-03T20:12:55.872Z,31.70
2019-03-03T20:15:24.271Z,34.93
2019-03-03T20:17:52.857Z,32.77
2019-03-03T20:20:21.906Z,35.83
2019-03-03T20:22:50.325Z,35.60
2019-03-03T20:25:18.768Z,31.17
2019-03-03T20:27:47.260Z,35.37
2019-03-03T20:30:18.746Z,37.70
2019-03-03T20:32:47.738Z,32.73
2019-03-03T20:35:16.482Z,34.53
2019-03-03T20:37:45.364Z,36.63
2019-03-03T20:40:16.189Z,37.20
2019-03-03T20:42:44.874Z,39.20
2019-03-03T20:45:15.833Z,41.53
2019-03-03T20:47:44.236Z,39.33
2019-03-03T20:50:15.260Z,41.23
2019-03-03T20:52:43.674Z,42.70
2019-03-03T20:55:14.478Z,48.07
2019-03-03T20:57:42.961Z,39.60
2019-03-03T21:00:14.484Z,39.27
2019-03-03T21:02:43.250Z,44.10
2019-03-03T21:05:11.698Z,42.53
2019-03-03T21:07:50.597Z,46.40
2019-03-03T21:10:15.986Z,40.90
2019-03-03T21:12:44.543Z,43.00
2019-03-03T21:15:13.864Z,42.20
2019-03-03T21:17:42.285Z,43.40
2019-03-03T21:20:13.429Z,43.83
2019-03-03T21:22:41.925Z,44.70
2019-03-03T21:25:15.079Z,41.07
2019-03-03T21:27:43.541Z,38.97
2019-03-03T21:30:19.400Z,43.10
2019-03-03T21:32:48.862Z,39.40
2019-03-03T21:35:17.410Z,42.47
2019-03-03T21:37:46.178Z,37.97
2019-03-03T21:40:20.469Z,38.27
2019-03-03T21:42:48.893Z,39.83
2019-03-03T21:45:25.597Z,35.13
2019-03-03T21:47:54.595Z,36.97
2019-03-03T21:50:24.440Z,33.00
2019-03-03T21:52:52.979Z,33.97
2019-03-03T21:55:21.435Z,31.00
2019-03-03T21:57:55.630Z,34.20
2019-03-03T22:00:33.228Z,31.03
2019-03-03T22:03:01.661Z,30.23
2019-03-03T22:05:30.060Z,30.60
2019-03-03T22:07:59.430Z,29.17
2019-03-03T22:10:32.005Z,27.70
2019-03-03T22:13:03.212Z,26.80
2019-03-03T22:15:32.133Z,24.63
2019-03-03T22:18:00.588Z,23.37
2019-03-03T22:20:29.137Z,24.37
2019-03-03T22:22:57.569Z,24.23
2019-03-03T22:25:25.976Z,23.10
2019-03-03T22:27:54.399Z,24.33
2019-03-03T22:30:22.955Z,22.67
2019-03-03T22:32:51.381Z,20.80
2019-03-03T22:35:19.812Z,20.93
2019-03-03T22:37:48.229Z,22.07
2019-03-03T22:40:18.988Z,19.90
2019-03-03T22:42:47.399Z,20.00
2019-03-03T22:45:17.617Z,20.77
2019-03-03T22:47:46.096Z,20.17
2019-03-03T22:50:21.341Z,20.63
2019-03-03T22:52:49.842Z,20.40
2019-03-03T22:55:19.896Z,20.73
2019-03-03T22:57:48.388Z,20.03
2019-03-03T23:00:45.175Z,18.43
2019-03-03T23:03:16.608Z,17.70
2019-03-03T23:05:56.756Z,17.30
2019-03-03T23:08:53.579Z,17.63
2019-03-03T23:11:27.741Z,16.13
2019-03-03T23:14:10.921Z,17.40
2019-03-03T23:16:44.968Z,17.73
2019-03-03T23:19:31.080Z,17.97
2019-03-03T23:22:35.642Z,15.47
2019-03-03T23:25:21.844Z,16.43
2019-03-03T23:27:50.261Z,15.97
2019-03-03T23:30:18.699Z,17.10
2019-03-03T23:32:47.101Z,16.40
2019-03-03T23:35:15.514Z,16.47
2019-03-03T23:37:43.930Z,17.90
2019-03-03T23:40:12.361Z,16.40
2019-03-03T23:42:40.765Z,17.07
2019-03-03T23:45:10.621Z,16.87
2019-03-03T23:47:39.044Z,16.17
2019-03-03T23:50:09.288Z,16.73
2019-03-03T23:52:37.952Z,16.40
2019-03-03T23:55:11.318Z,18.07
2019-03-03T23:57:39.724Z,16.40
